sensor_id;sensor_type;location;lat;lon;timestamp;temperature;humidity
21801;DHT22;11062;51.164;16.924;2023-04-16T00:02:10;31.30;34.50
21801;DHT22;11062;51.164;16.924;2023-04-16T00:04:36;31.30;34.70
21801;DHT22;11062;51.164;16.924;2023-04-16T00:07:03;31.30;34.30
21801;DHT22;11062;51.164;16.924;2023-04-16T00:09:31;31.30;34.70
21801;DHT22;11062;51.164;16.924;2023-04-16T00:11:57;31.30;34.60
21801;DHT22;11062;51.164;16.924;2023-04-16T00:14:23;31.30;34.60
21801;DHT22;11062;51.164;16.924;2023-04-16T00:16:49;31.20;34.20
21801;DHT22;11062;51.164;16.924;2023-04-16T00:19:15;31.20;34.30
21801;DHT22;11062;51.164;16.924;2023-04-16T00:21:43;31.20;34.60
21801;DHT22;11062;51.164;16.924;2023-04-16T00:24:09;31.20;34.90
21801;DHT22;11062;51.164;16.924;2023-04-16T00:26:38;31.20;35.20
21801;DHT22;11062;51.164;16.924;2023-04-16T00:29:05;31.10;34.80
21801;DHT22;11062;51.164;16.924;2023-04-16T00:31:32;31.10;34.30
21801;DHT22;11062;51.164;16.924;2023-04-16T00:33:59;31.10;34.10
21801;DHT22;11062;51.164;16.924;2023-04-16T00:36:26;31.10;33.90
21801;DHT22;11062;51.164;16.924;2023-04-16T00:38:52;31.10;33.70
21801;DHT22;11062;51.164;16.924;2023-04-16T00:41:19;31.00;33.70
21801;DHT22;11062;51.164;16.924;2023-04-16T00:43:45;31.00;34.10
21801;DHT22;11062;51.164;16.924;2023-04-16T00:46:15;30.90;34.30
21801;DHT22;11062;51.164;16.924;2023-04-16T00:48:42;30.90;34.10
21801;DHT22;11062;51.164;16.924;2023-04-16T00:51:08;30.80;34.70
21801;DHT22;11062;51.164;16.924;2023-04-16T00:53:38;30.80;35.30
21801;DHT22;11062;51.164;16.924;2023-04-16T00:56:05;30.80;35.10
21801;DHT22;11062;51.164;16.924;2023-04-16T00:58:33;30.80;35.10
21801;DHT22;11062;51.164;16.924;2023-04-16T01:01:02;30.80;34.90
21801;DHT22;11062;51.164;16.924;2023-04-16T01:03:38;30.80;34.90
21801;DHT22;11062;51.164;16.924;2023-04-16T01:06:05;30.80;35.00
21801;DHT22;11062;51.164;16.924;2023-04-16T01:08:32;30.80;35.10
21801;DHT22;11062;51.164;16.924;2023-04-16T01:10:58;30.80;35.20
21801;DHT22;11062;51.164;16.924;2023-04-16T01:13:24;30.80;34.90
21801;DHT22;11062;51.164;16.924;2023-04-16T01:15:50;30.80;33.90
21801;DHT22;11062;51.164;16.924;2023-04-16T01:18:17;30.80;33.50
21801;DHT22;11062;51.164;16.924;2023-04-16T01:20:44;30.80;33.90
21801;DHT22;11062;51.164;16.924;2023-04-16T01:23:21;30.80;33.40
21801;DHT22;11062;51.164;16.924;2023-04-16T01:25:47;30.70;34.70
21801;DHT22;11062;51.164;16.924;2023-04-16T01:28:13;30.60;34.30
21801;DHT22;11062;51.164;16.924;2023-04-16T01:30:39;30.60;34.00
21801;DHT22;11062;51.164;16.924;2023-04-16T01:33:05;30.60;33.60
21801;DHT22;11062;51.164;16.924;2023-04-16T01:35:32;30.60;33.60
21801;DHT22;11062;51.164;16.924;2023-04-16T01:37:58;30.50;35.10
21801;DHT22;11062;51.164;16.924;2023-04-16T01:40:24;30.20;35.40
21801;DHT22;11062;51.164;16.924;2023-04-16T01:42:50;30.10;36.00
21801;DHT22;11062;51.164;16.924;2023-04-16T01:45:16;30.00;36.20
21801;DHT22;11062;51.164;16.924;2023-04-16T01:47:42;29.90;36.30
21801;DHT22;11062;51.164;16.924;2023-04-16T01:50:08;29.90;36.30
21801;DHT22;11062;51.164;16.924;2023-04-16T01:52:34;30.00;36.40
21801;DHT22;11062;51.164;16.924;2023-04-16T01:55:00;30.10;36.20
21801;DHT22;11062;51.164;16.924;2023-04-16T01:57:26;30.20;35.90
21801;DHT22;11062;51.164;16.924;2023-04-16T01:59:52;30.20;35.80
21801;DHT22;11062;51.164;16.924;2023-04-16T02:02:18;30.30;35.90
21801;DHT22;11062;51.164;16.924;2023-04-16T02:20:16;30.50;34.30
21801;DHT22;11062;51.164;16.924;2023-04-16T02:22:45;30.50;34.80
21801;DHT22;11062;51.164;16.924;2023-04-16T02:25:11;30.50;34.50
21801;DHT22;11062;51.164;16.924;2023-04-16T02:27:41;30.50;34.30
21801;DHT22;11062;51.164;16.924;2023-04-16T02:33:53;30.50;33.80
21801;DHT22;11062;51.164;16.924;2023-04-16T02:36:37;30.50;34.00
21801;DHT22;11062;51.164;16.924;2023-04-16T02:39:06;30.50;34.00
21801;DHT22;11062;51.164;16.924;2023-04-16T03:15:29;30.20;34.80
21801;DHT22;11062;51.164;16.924;2023-04-16T03:22:25;30.10;34.90
21801;DHT22;11062;51.164;16.924;2023-04-16T03:25:41;30.20;35.10
21801;DHT22;11062;51.164;16.924;2023-04-16T03:29:03;30.20;35.10
21801;DHT22;11062;51.164;16.924;2023-04-16T03:31:33;30.20;35.00
21801;DHT22;11062;51.164;16.924;2023-04-16T03:34:02;30.10;35.20
21801;DHT22;11062;51.164;16.924;2023-04-16T03:36:28;30.10;35.50
21801;DHT22;11062;51.164;16.924;2023-04-16T03:38:57;30.10;35.70
21801;DHT22;11062;51.164;16.924;2023-04-16T03:41:24;30.10;35.90
21801;DHT22;11062;51.164;16.924;2023-04-16T03:43:50;30.10;35.70
21801;DHT22;11062;51.164;16.924;2023-04-16T03:46:18;30.10;35.60
21801;DHT22;11062;51.164;16.924;2023-04-16T03:48:47;30.20;36.10
21801;DHT22;11062;51.164;16.924;2023-04-16T03:51:13;30.20;35.30
21801;DHT22;11062;51.164;16.924;2023-04-16T03:53:40;30.20;35.30
21801;DHT22;11062;51.164;16.924;2023-04-16T03:56:08;30.20;35.20
21801;DHT22;11062;51.164;16.924;2023-04-16T03:58:35;30.30;35.90
21801;DHT22;11062;51.164;16.924;2023-04-16T04:01:00;30.30;35.30
21801;DHT22;11062;51.164;16.924;2023-04-16T04:03:26;30.40;36.00
21801;DHT22;11062;51.164;16.924;2023-04-16T04:05:55;30.40;35.30
21801;DHT22;11062;51.164;16.924;2023-04-16T04:08:21;30.40;35.20
21801;DHT22;11062;51.164;16.924;2023-04-16T04:10:47;30.40;35.30
21801;DHT22;11062;51.164;16.924;2023-04-16T04:13:13;30.40;35.40
21801;DHT22;11062;51.164;16.924;2023-04-16T04:15:39;30.40;35.50
21801;DHT22;11062;51.164;16.924;2023-04-16T04:18:05;30.40;35.50
21801;DHT22;11062;51.164;16.924;2023-04-16T04:20:31;30.40;35.60
21801;DHT22;11062;51.164;16.924;2023-04-16T04:22:57;30.50;35.60
21801;DHT22;11062;51.164;16.924;2023-04-16T04:25:23;30.50;35.60
21801;DHT22;11062;51.164;16.924;2023-04-16T04:27:49;30.10;35.60
21801;DHT22;11062;51.164;16.924;2023-04-16T04:30:15;30.00;36.10
21801;DHT22;11062;51.164;16.924;2023-04-16T04:32:41;30.00;36.20
21801;DHT22;11062;51.164;16.924;2023-04-16T04:35:07;30.10;36.30
21801;DHT22;11062;51.164;16.924;2023-04-16T04:37:33;30.10;36.30
21801;DHT22;11062;51.164;16.924;2023-04-16T04:39:59;30.20;36.30
21801;DHT22;11062;51.164;16.924;2023-04-16T04:42:24;30.20;36.10
21801;DHT22;11062;51.164;16.924;2023-04-16T04:44:53;30.30;36.30
21801;DHT22;11062;51.164;16.924;2023-04-16T04:47:19;30.30;36.20
21801;DHT22;11062;51.164;16.924;2023-04-16T04:49:45;30.30;36.10
21801;DHT22;11062;51.164;16.924;2023-04-16T04:52:11;30.30;36.10
21801;DHT22;11062;51.164;16.924;2023-04-16T04:54:39;30.40;36.00
21801;DHT22;11062;51.164;16.924;2023-04-16T04:57:06;30.50;35.90
21801;DHT22;11062;51.164;16.924;2023-04-16T04:59:32;30.60;35.80
21801;DHT22;11062;51.164;16.924;2023-04-16T05:01:58;30.70;35.80
21801;DHT22;11062;51.164;16.924;2023-04-16T05:04:24;30.80;35.70
21801;DHT22;11062;51.164;16.924;2023-04-16T05:06:50;30.80;35.60
21801;DHT22;11062;51.164;16.924;2023-04-16T05:09:19;30.80;35.40
21801;DHT22;11062;51.164;16.924;2023-04-16T05:11:45;30.90;35.40
21801;DHT22;11062;51.164;16.924;2023-04-16T05:14:13;31.00;35.40
21801;DHT22;11062;51.164;16.924;2023-04-16T05:16:39;31.00;35.40
21801;DHT22;11062;51.164;16.924;2023-04-16T05:19:05;31.00;35.50
21801;DHT22;11062;51.164;16.924;2023-04-16T05:21:31;31.10;35.50
21801;DHT22;11062;51.164;16.924;2023-04-16T05:23:57;31.10;35.60
21801;DHT22;11062;51.164;16.924;2023-04-16T05:26:23;31.10;36.40
21801;DHT22;11062;51.164;16.924;2023-04-16T05:28:49;31.00;35.70
21801;DHT22;11062;51.164;16.924;2023-04-16T05:31:18;31.00;35.70
21801;DHT22;11062;51.164;16.924;2023-04-16T05:33:47;31.00;35.80
21801;DHT22;11062;51.164;16.924;2023-04-16T05:36:13;31.10;36.00
21801;DHT22;11062;51.164;16.924;2023-04-16T05:38:39;31.00;35.90
21801;DHT22;11062;51.164;16.924;2023-04-16T05:41:05;30.90;36.00
21801;DHT22;11062;51.164;16.924;2023-04-16T05:43:31;30.90;36.30
21801;DHT22;11062;51.164;16.924;2023-04-16T05:45:56;31.00;36.90
21801;DHT22;11062;51.164;16.924;2023-04-16T05:48:31;31.00;36.20
21801;DHT22;11062;51.164;16.924;2023-04-16T05:50:56;31.00;36.30
21801;DHT22;11062;51.164;16.924;2023-04-16T05:53:22;30.90;36.20
21801;DHT22;11062;51.164;16.924;2023-04-16T05:55:48;30.90;36.20
21801;DHT22;11062;51.164;16.924;2023-04-16T05:58:14;31.00;36.20
21801;DHT22;11062;51.164;16.924;2023-04-16T06:00:40;31.10;36.30
21801;DHT22;11062;51.164;16.924;2023-04-16T06:03:06;31.10;36.30
21801;DHT22;11062;51.164;16.924;2023-04-16T06:05:32;31.20;36.10
21801;DHT22;11062;51.164;16.924;2023-04-16T06:08:00;31.30;36.30
21801;DHT22;11062;51.164;16.924;2023-04-16T06:10:26;31.30;36.30
21801;DHT22;11062;51.164;16.924;2023-04-16T06:12:55;31.40;36.30
21801;DHT22;11062;51.164;16.924;2023-04-16T06:15:21;31.50;36.50
21801;DHT22;11062;51.164;16.924;2023-04-16T06:17:48;31.50;36.50
21801;DHT22;11062;51.164;16.924;2023-04-16T06:20:17;31.30;36.20
21801;DHT22;11062;51.164;16.924;2023-04-16T06:22:43;31.30;36.50
21801;DHT22;11062;51.164;16.924;2023-04-16T06:25:09;31.40;36.50
21801;DHT22;11062;51.164;16.924;2023-04-16T06:27:35;31.50;36.40
21801;DHT22;11062;51.164;16.924;2023-04-16T06:30:01;31.60;36.50
21801;DHT22;11062;51.164;16.924;2023-04-16T06:32:26;31.70;36.70
21801;DHT22;11062;51.164;16.924;2023-04-16T06:34:52;31.80;36.30
21801;DHT22;11062;51.164;16.924;2023-04-16T06:37:20;31.80;36.30
21801;DHT22;11062;51.164;16.924;2023-04-16T06:47:35;31.80;36.10
21801;DHT22;11062;51.164;16.924;2023-04-16T06:50:00;31.80;36.40
21801;DHT22;11062;51.164;16.924;2023-04-16T06:52:27;31.70;36.30
21801;DHT22;11062;51.164;16.924;2023-04-16T06:54:53;31.80;36.50
21801;DHT22;11062;51.164;16.924;2023-04-16T06:57:19;31.80;36.50
21801;DHT22;11062;51.164;16.924;2023-04-16T06:59:45;31.90;36.50
21801;DHT22;11062;51.164;16.924;2023-04-16T07:02:11;32.00;36.30
21801;DHT22;11062;51.164;16.924;2023-04-16T07:05:01;32.10;36.20
21801;DHT22;11062;51.164;16.924;2023-04-16T07:08:19;31.90;36.30
21801;DHT22;11062;51.164;16.924;2023-04-16T07:12:02;31.30;36.50
21801;DHT22;11062;51.164;16.924;2023-04-16T07:25:48;31.70;36.70
21801;DHT22;11062;51.164;16.924;2023-04-16T07:28:52;31.90;37.10
21801;DHT22;11062;51.164;16.924;2023-04-16T07:31:19;31.90;37.30
21801;DHT22;11062;51.164;16.924;2023-04-16T07:33:45;32.00;36.90
21801;DHT22;11062;51.164;16.924;2023-04-16T07:36:11;32.20;37.20
21801;DHT22;11062;51.164;16.924;2023-04-16T07:38:37;32.40;37.20
21801;DHT22;11062;51.164;16.924;2023-04-16T07:41:06;32.50;36.60
21801;DHT22;11062;51.164;16.924;2023-04-16T07:46:01;32.30;37.10
21801;DHT22;11062;51.164;16.924;2023-04-16T07:48:32;31.80;36.40
21801;DHT22;11062;51.164;16.924;2023-04-16T07:51:06;31.30;37.00
21801;DHT22;11062;51.164;16.924;2023-04-16T07:53:55;31.10;37.50
21801;DHT22;11062;51.164;16.924;2023-04-16T07:56:58;30.60;37.80
21801;DHT22;11062;51.164;16.924;2023-04-16T07:59:31;31.30;41.10
21801;DHT22;11062;51.164;16.924;2023-04-16T08:02:17;30.00;38.60
21801;DHT22;11062;51.164;16.924;2023-04-16T08:05:24;29.90;39.60
21801;DHT22;11062;51.164;16.924;2023-04-16T08:08:17;29.90;38.70
21801;DHT22;11062;51.164;16.924;2023-04-16T08:10:46;30.00;39.20
21801;DHT22;11062;51.164;16.924;2023-04-16T08:13:12;30.10;39.40
21801;DHT22;11062;51.164;16.924;2023-04-16T08:15:38;30.40;38.90
21801;DHT22;11062;51.164;16.924;2023-04-16T08:18:04;30.80;38.90
21801;DHT22;11062;51.164;16.924;2023-04-16T08:20:32;30.90;38.70
21801;DHT22;11062;51.164;16.924;2023-04-16T08:22:58;30.90;38.20
21801;DHT22;11062;51.164;16.924;2023-04-16T08:25:23;30.90;38.10
21801;DHT22;11062;51.164;16.924;2023-04-16T08:27:49;30.70;38.20
21801;DHT22;11062;51.164;16.924;2023-04-16T08:30:15;30.70;38.60
21801;DHT22;11062;51.164;16.924;2023-04-16T08:32:42;30.90;38.40
21801;DHT22;11062;51.164;16.924;2023-04-16T08:35:08;31.00;38.70
21801;DHT22;11062;51.164;16.924;2023-04-16T08:37:34;31.20;38.40
21801;DHT22;11062;51.164;16.924;2023-04-16T08:40:01;31.40;37.90
21801;DHT22;11062;51.164;16.924;2023-04-16T08:42:33;31.50;37.60
21801;DHT22;11062;51.164;16.924;2023-04-16T08:45:13;31.70;37.80
21801;DHT22;11062;51.164;16.924;2023-04-16T08:47:47;31.80;37.60
21801;DHT22;11062;51.164;16.924;2023-04-16T08:50:14;31.80;37.80
21801;DHT22;11062;51.164;16.924;2023-04-16T08:52:50;31.60;37.70
21801;DHT22;11062;51.164;16.924;2023-04-16T08:55:22;31.70;37.90
21801;DHT22;11062;51.164;16.924;2023-04-16T08:57:53;31.20;37.80
21801;DHT22;11062;51.164;16.924;2023-04-16T09:00:23;31.30;38.40
21801;DHT22;11062;51.164;16.924;2023-04-16T09:02:49;31.30;38.40
21801;DHT22;11062;51.164;16.924;2023-04-16T09:05:16;31.40;38.40
21801;DHT22;11062;51.164;16.924;2023-04-16T09:07:46;31.10;38.30
21801;DHT22;11062;51.164;16.924;2023-04-16T09:10:14;31.30;38.40
21801;DHT22;11062;51.164;16.924;2023-04-16T09:12:41;31.50;38.50
21801;DHT22;11062;51.164;16.924;2023-04-16T09:15:09;31.50;38.40
21801;DHT22;11062;51.164;16.924;2023-04-16T09:17:35;31.60;38.10
21801;DHT22;11062;51.164;16.924;2023-04-16T09:20:02;31.80;38.50
21801;DHT22;11062;51.164;16.924;2023-04-16T09:22:30;31.90;38.40
21801;DHT22;11062;51.164;16.924;2023-04-16T09:24:56;31.90;38.10
21801;DHT22;11062;51.164;16.924;2023-04-16T09:27:23;31.80;37.60
21801;DHT22;11062;51.164;16.924;2023-04-16T09:29:50;32.00;37.90
21801;DHT22;11062;51.164;16.924;2023-04-16T09:32:23;32.00;37.20
21801;DHT22;11062;51.164;16.924;2023-04-16T09:34:57;32.10;37.90
21801;DHT22;11062;51.164;16.924;2023-04-16T09:37:27;32.30;38.10
21801;DHT22;11062;51.164;16.924;2023-04-16T09:42:27;32.10;37.60
21801;DHT22;11062;51.164;16.924;2023-04-16T09:44:54;32.10;37.50
21801;DHT22;11062;51.164;16.924;2023-04-16T09:47:22;32.20;37.50
21801;DHT22;11062;51.164;16.924;2023-04-16T09:49:48;32.40;37.10
21801;DHT22;11062;51.164;16.924;2023-04-16T09:52:15;32.40;37.70
21801;DHT22;11062;51.164;16.924;2023-04-16T09:57:11;33.00;36.60
21801;DHT22;11062;51.164;16.924;2023-04-16T09:59:37;33.30;36.30
21801;DHT22;11062;51.164;16.924;2023-04-16T10:02:07;33.50;35.70
21801;DHT22;11062;51.164;16.924;2023-04-16T10:04:50;33.70;36.10
21801;DHT22;11062;51.164;16.924;2023-04-16T10:07:17;34.00;36.40
21801;DHT22;11062;51.164;16.924;2023-04-16T10:09:44;34.10;35.40
21801;DHT22;11062;51.164;16.924;2023-04-16T10:12:11;34.40;36.10
21801;DHT22;11062;51.164;16.924;2023-04-16T10:14:40;34.60;35.60
21801;DHT22;11062;51.164;16.924;2023-04-16T10:17:07;35.00;35.00
21801;DHT22;11062;51.164;16.924;2023-04-16T10:19:34;35.20;34.70
21801;DHT22;11062;51.164;16.924;2023-04-16T10:22:03;35.50;34.50
21801;DHT22;11062;51.164;16.924;2023-04-16T10:24:33;35.90;34.30
21801;DHT22;11062;51.164;16.924;2023-04-16T10:27:00;36.20;33.70
21801;DHT22;11062;51.164;16.924;2023-04-16T10:29:28;36.30;32.50
21801;DHT22;11062;51.164;16.924;2023-04-16T10:31:55;36.60;32.10
21801;DHT22;11062;51.164;16.924;2023-04-16T10:34:22;36.70;32.00
21801;DHT22;11062;51.164;16.924;2023-04-16T10:36:50;36.80;30.50
21801;DHT22;11062;51.164;16.924;2023-04-16T10:39:26;37.00;30.30
21801;DHT22;11062;51.164;16.924;2023-04-16T10:42:12;37.00;29.30
21801;DHT22;11062;51.164;16.924;2023-04-16T10:44:49;37.00;29.40
21801;DHT22;11062;51.164;16.924;2023-04-16T10:47:18;37.10;29.40
21801;DHT22;11062;51.164;16.924;2023-04-16T10:49:46;36.90;30.00
21801;DHT22;11062;51.164;16.924;2023-04-16T10:52:15;37.00;30.40
21801;DHT22;11062;51.164;16.924;2023-04-16T10:54:42;36.70;30.20
21801;DHT22;11062;51.164;16.924;2023-04-16T10:57:09;36.70;31.20
21801;DHT22;11062;51.164;16.924;2023-04-16T10:59:37;37.00;31.20
21801;DHT22;11062;51.164;16.924;2023-04-16T11:02:12;37.10;31.20
21801;DHT22;11062;51.164;16.924;2023-04-16T11:04:39;37.40;31.00
21801;DHT22;11062;51.164;16.924;2023-04-16T11:12:17;37.80;30.60
21801;DHT22;11062;51.164;16.924;2023-04-16T11:14:57;37.90;30.50
21801;DHT22;11062;51.164;16.924;2023-04-16T11:17:28;37.90;30.00
21801;DHT22;11062;51.164;16.924;2023-04-16T11:19:54;37.90;30.80
21801;DHT22;11062;51.164;16.924;2023-04-16T11:22:20;37.90;31.60
21801;DHT22;11062;51.164;16.924;2023-04-16T11:24:46;38.00;31.30
21801;DHT22;11062;51.164;16.924;2023-04-16T11:27:13;38.20;30.20
21801;DHT22;11062;51.164;16.924;2023-04-16T11:29:39;38.40;29.70
21801;DHT22;11062;51.164;16.924;2023-04-16T11:32:06;38.60;29.00
21801;DHT22;11062;51.164;16.924;2023-04-16T11:34:31;38.60;30.50
21801;DHT22;11062;51.164;16.924;2023-04-16T11:36:58;38.80;29.70
21801;DHT22;11062;51.164;16.924;2023-04-16T11:39:26;38.90;29.90
21801;DHT22;11062;51.164;16.924;2023-04-16T11:41:52;39.00;29.60
21801;DHT22;11062;51.164;16.924;2023-04-16T11:44:23;39.30;29.30
21801;DHT22;11062;51.164;16.924;2023-04-16T11:46:50;39.60;28.90
21801;DHT22;11062;51.164;16.924;2023-04-16T11:49:16;39.90;28.90
21801;DHT22;11062;51.164;16.924;2023-04-16T11:51:44;39.90;28.70
21801;DHT22;11062;51.164;16.924;2023-04-16T11:54:21;40.00;28.60
21801;DHT22;11062;51.164;16.924;2023-04-16T11:56:52;39.90;28.50
21801;DHT22;11062;51.164;16.924;2023-04-16T11:59:19;39.80;28.70
21801;DHT22;11062;51.164;16.924;2023-04-16T12:01:49;39.80;28.70
21801;DHT22;11062;51.164;16.924;2023-04-16T12:04:18;39.80;29.00
21801;DHT22;11062;51.164;16.924;2023-04-16T12:07:13;39.80;29.00
21801;DHT22;11062;51.164;16.924;2023-04-16T12:09:41;39.90;28.80
21801;DHT22;11062;51.164;16.924;2023-04-16T12:12:26;39.80;28.60
21801;DHT22;11062;51.164;16.924;2023-04-16T12:14:55;39.90;28.60
21801;DHT22;11062;51.164;16.924;2023-04-16T12:17:25;39.80;28.80
21801;DHT22;11062;51.164;16.924;2023-04-16T12:19:55;39.70;28.90
21801;DHT22;11062;51.164;16.924;2023-04-16T12:22:34;39.60;28.70
21801;DHT22;11062;51.164;16.924;2023-04-16T12:25:06;39.50;28.60
21801;DHT22;11062;51.164;16.924;2023-04-16T12:27:49;39.40;28.60
21801;DHT22;11062;51.164;16.924;2023-04-16T12:30:19;39.30;29.30
21801;DHT22;11062;51.164;16.924;2023-04-16T12:32:48;39.20;28.80
21801;DHT22;11062;51.164;16.924;2023-04-16T12:35:31;39.10;28.80
21801;DHT22;11062;51.164;16.924;2023-04-16T12:37:58;39.30;28.60
21801;DHT22;11062;51.164;16.924;2023-04-16T12:40:24;39.00;28.40
21801;DHT22;11062;51.164;16.924;2023-04-16T12:42:50;39.10;28.30
21801;DHT22;11062;51.164;16.924;2023-04-16T12:45:19;39.00;28.50
21801;DHT22;11062;51.164;16.924;2023-04-16T12:47:46;38.90;29.00
21801;DHT22;11062;51.164;16.924;2023-04-16T12:50:18;38.80;28.60
21801;DHT22;11062;51.164;16.924;2023-04-16T12:52:46;38.60;28.60
21801;DHT22;11062;51.164;16.924;2023-04-16T12:55:12;38.60;28.70
21801;DHT22;11062;51.164;16.924;2023-04-16T12:57:41;38.50;28.60
21801;DHT22;11062;51.164;16.924;2023-04-16T13:00:08;38.30;28.60
21801;DHT22;11062;51.164;16.924;2023-04-16T13:02:37;38.20;29.00
21801;DHT22;11062;51.164;16.924;2023-04-16T13:05:03;38.00;29.00
21801;DHT22;11062;51.164;16.924;2023-04-16T13:07:29;38.00;29.30
21801;DHT22;11062;51.164;16.924;2023-04-16T13:09:59;38.00;29.60
21801;DHT22;11062;51.164;16.924;2023-04-16T13:12:27;37.90;29.10
21801;DHT22;11062;51.164;16.924;2023-04-16T13:14:54;37.80;29.20
21801;DHT22;11062;51.164;16.924;2023-04-16T13:17:20;37.80;29.60
21801;DHT22;11062;51.164;16.924;2023-04-16T13:19:46;37.70;29.40
21801;DHT22;11062;51.164;16.924;2023-04-16T13:22:12;37.70;29.50
21801;DHT22;11062;51.164;16.924;2023-04-16T13:24:38;37.70;29.40
21801;DHT22;11062;51.164;16.924;2023-04-16T13:27:04;37.70;29.30
21801;DHT22;11062;51.164;16.924;2023-04-16T13:29:33;37.60;29.30
21801;DHT22;11062;51.164;16.924;2023-04-16T13:32:04;37.60;29.40
21801;DHT22;11062;51.164;16.924;2023-04-16T13:34:30;37.60;29.50
21801;DHT22;11062;51.164;16.924;2023-04-16T13:36:56;37.50;29.30
21801;DHT22;11062;51.164;16.924;2023-04-16T13:39:24;37.60;29.40
21801;DHT22;11062;51.164;16.924;2023-04-16T13:41:50;37.40;29.10
21801;DHT22;11062;51.164;16.924;2023-04-16T13:44:19;37.60;29.30
21801;DHT22;11062;51.164;16.924;2023-04-16T13:46:45;37.50;28.90
21801;DHT22;11062;51.164;16.924;2023-04-16T13:49:15;37.40;29.60
21801;DHT22;11062;51.164;16.924;2023-04-16T13:51:42;37.30;29.20
21801;DHT22;11062;51.164;16.924;2023-04-16T13:54:09;37.30;29.10
21801;DHT22;11062;51.164;16.924;2023-04-16T13:56:38;37.40;29.10
21801;DHT22;11062;51.164;16.924;2023-04-16T13:59:05;37.50;28.80
21801;DHT22;11062;51.164;16.924;2023-04-16T14:01:32;37.40;29.00
21801;DHT22;11062;51.164;16.924;2023-04-16T14:03:59;37.40;29.00
21801;DHT22;11062;51.164;16.924;2023-04-16T14:06:30;37.60;29.40
21801;DHT22;11062;51.164;16.924;2023-04-16T14:08:59;37.50;29.30
21801;DHT22;11062;51.164;16.924;2023-04-16T14:11:29;37.60;29.40
21801;DHT22;11062;51.164;16.924;2023-04-16T14:13:56;37.40;29.40
21801;DHT22;11062;51.164;16.924;2023-04-16T14:16:34;37.60;29.60
21801;DHT22;11062;51.164;16.924;2023-04-16T14:19:08;37.50;29.40
21801;DHT22;11062;51.164;16.924;2023-04-16T14:21:35;37.90;29.00
21801;DHT22;11062;51.164;16.924;2023-04-16T14:24:06;38.40;28.90
21801;DHT22;11062;51.164;16.924;2023-04-16T14:26:36;38.70;28.70
21801;DHT22;11062;51.164;16.924;2023-04-16T14:29:06;39.00;28.00
21801;DHT22;11062;51.164;16.924;2023-04-16T14:31:49;39.50;27.90
21801;DHT22;11062;51.164;16.924;2023-04-16T14:34:24;40.00;27.60
21801;DHT22;11062;51.164;16.924;2023-04-16T14:36:52;40.40;27.40
21801;DHT22;11062;51.164;16.924;2023-04-16T14:39:26;40.90;27.10
21801;DHT22;11062;51.164;16.924;2023-04-16T14:42:55;41.20;26.70
21801;DHT22;11062;51.164;16.924;2023-04-16T14:46:00;41.60;26.20
21801;DHT22;11062;51.164;16.924;2023-04-16T14:48:29;41.70;26.20
21801;DHT22;11062;51.164;16.924;2023-04-16T14:51:25;41.90;26.50
21801;DHT22;11062;51.164;16.924;2023-04-16T14:54:38;41.70;26.30
21801;DHT22;11062;51.164;16.924;2023-04-16T14:57:06;41.60;26.00
21801;DHT22;11062;51.164;16.924;2023-04-16T14:59:38;41.50;26.00
21801;DHT22;11062;51.164;16.924;2023-04-16T15:02:04;41.40;25.30
21801;DHT22;11062;51.164;16.924;2023-04-16T15:04:30;41.20;25.50
21801;DHT22;11062;51.164;16.924;2023-04-16T15:06:56;41.00;25.70
21801;DHT22;11062;51.164;16.924;2023-04-16T15:09:25;40.70;26.00
21801;DHT22;11062;51.164;16.924;2023-04-16T15:11:52;40.60;26.20
21801;DHT22;11062;51.164;16.924;2023-04-16T15:14:21;40.40;26.20
21801;DHT22;11062;51.164;16.924;2023-04-16T15:16:49;40.30;26.20
21801;DHT22;11062;51.164;16.924;2023-04-16T15:19:18;40.10;26.40
21801;DHT22;11062;51.164;16.924;2023-04-16T15:21:47;39.80;26.50
21801;DHT22;11062;51.164;16.924;2023-04-16T15:24:16;39.70;26.90
21801;DHT22;11062;51.164;16.924;2023-04-16T15:26:42;39.40;26.90
21801;DHT22;11062;51.164;16.924;2023-04-16T15:29:14;39.30;27.10
21801;DHT22;11062;51.164;16.924;2023-04-16T15:31:46;39.20;27.10
21801;DHT22;11062;51.164;16.924;2023-04-16T15:34:19;39.00;27.20
21801;DHT22;11062;51.164;16.924;2023-04-16T15:36:58;38.90;27.50
21801;DHT22;11062;51.164;16.924;2023-04-16T15:39:24;38.80;27.70
21801;DHT22;11062;51.164;16.924;2023-04-16T15:41:52;38.80;27.50
21801;DHT22;11062;51.164;16.924;2023-04-16T15:44:21;38.80;27.10
21801;DHT22;11062;51.164;16.924;2023-04-16T15:46:48;38.60;26.90
21801;DHT22;11062;51.164;16.924;2023-04-16T15:49:17;38.80;26.90
21801;DHT22;11062;51.164;16.924;2023-04-16T15:59:42;38.60;27.90
21801;DHT22;11062;51.164;16.924;2023-04-16T16:02:13;38.60;28.00
21801;DHT22;11062;51.164;16.924;2023-04-16T16:04:39;38.70;27.40
21801;DHT22;11062;51.164;16.924;2023-04-16T16:07:10;38.80;27.20
21801;DHT22;11062;51.164;16.924;2023-04-16T16:09:42;38.80;27.30
21801;DHT22;11062;51.164;16.924;2023-04-16T16:12:17;38.90;27.30
21801;DHT22;11062;51.164;16.924;2023-04-16T16:14:44;38.90;27.30
21801;DHT22;11062;51.164;16.924;2023-04-16T16:17:09;38.90;27.30
21801;DHT22;11062;51.164;16.924;2023-04-16T16:19:36;38.80;27.40
21801;DHT22;11062;51.164;16.924;2023-04-16T16:22:05;38.80;27.50
21801;DHT22;11062;51.164;16.924;2023-04-16T16:24:31;38.60;27.50
21801;DHT22;11062;51.164;16.924;2023-04-16T16:26:57;38.60;27.70
21801;DHT22;11062;51.164;16.924;2023-04-16T16:29:25;38.50;28.10
21801;DHT22;11062;51.164;16.924;2023-04-16T16:39:08;38.20;27.90
21801;DHT22;11062;51.164;16.924;2023-04-16T16:41:35;38.00;28.50
21801;DHT22;11062;51.164;16.924;2023-04-16T16:44:07;37.80;28.20
21801;DHT22;11062;51.164;16.924;2023-04-16T16:46:33;37.60;27.90
21801;DHT22;11062;51.164;16.924;2023-04-16T16:49:01;37.50;28.00
21801;DHT22;11062;51.164;16.924;2023-04-16T16:51:32;37.40;29.10
21801;DHT22;11062;51.164;16.924;2023-04-16T16:54:00;37.20;28.70
21801;DHT22;11062;51.164;16.924;2023-04-16T16:56:53;37.00;28.80
21801;DHT22;11062;51.164;16.924;2023-04-16T17:00:09;36.90;28.70
21801;DHT22;11062;51.164;16.924;2023-04-16T17:02:39;36.70;28.90
21801;DHT22;11062;51.164;16.924;2023-04-16T17:05:06;35.30;30.90
21801;DHT22;11062;51.164;16.924;2023-04-16T17:08:21;34.40;31.50
21801;DHT22;11062;51.164;16.924;2023-04-16T17:10:56;33.10;32.90
21801;DHT22;11062;51.164;16.924;2023-04-16T17:17:26;31.50;34.90
21801;DHT22;11062;51.164;16.924;2023-04-16T18:10:00;32.20;36.00
21801;DHT22;11062;51.164;16.924;2023-04-16T18:12:53;32.20;36.10